sensor_id;sensor_type;location;lat;lon;timestamp;P1;durP1;ratioP1;P2;durP2;ratioP2
32790;SDS011;19143;59.322;14.502;2023-02-15T00:01:50;20.37;;;8.00;;
32790;SDS011;19143;59.322;14.502;2023-02-15T00:04:20;18.20;;;8.23;;
32790;SDS011;19143;59.322;14.502;2023-02-15T00:06:47;17.83;;;8.07;;
32790;SDS011;19143;59.322;14.502;2023-02-15T00:09:14;17.10;;;8.20;;
32790;SDS011;19143;59.322;14.502;2023-02-15T00:11:41;17.00;;;7.70;;
32790;SDS011;19143;59.322;14.502;2023-02-15T00:14:15;14.90;;;7.17;;
32790;SDS011;19143;59.322;14.502;2023-02-15T00:16:43;16.50;;;7.90;;
32790;SDS011;19143;59.322;14.502;2023-02-15T00:19:10;18.27;;;8.23;;
32790;SDS011;19143;59.322;14.502;2023-02-15T00:21:39;17.27;;;7.60;;
32790;SDS011;19143;59.322;14.502;2023-02-15T00:24:07;17.80;;;8.03;;
32790;SDS011;19143;59.322;14.502;2023-02-15T00:26:34;18.93;;;8.17;;
32790;SDS011;19143;59.322;14.502;2023-02-15T00:29:01;18.63;;;7.87;;
32790;SDS011;19143;59.322;14.502;2023-02-15T00:31:28;15.90;;;8.30;;
32790;SDS011;19143;59.322;14.502;2023-02-15T00:33:55;18.77;;;8.07;;
32790;SDS011;19143;59.322;14.502;2023-02-15T00:36:22;18.77;;;8.33;;
32790;SDS011;19143;59.322;14.502;2023-02-15T00:38:50;16.10;;;8.13;;
32790;SDS011;19143;59.322;14.502;2023-02-15T00:41:17;19.63;;;7.90;;
32790;SDS011;19143;59.322;14.502;2023-02-15T00:43:44;20.97;;;8.77;;
32790;SDS011;19143;59.322;14.502;2023-02-15T00:46:10;20.33;;;8.70;;
32790;SDS011;19143;59.322;14.502;2023-02-15T00:48:37;19.87;;;9.00;;
32790;SDS011;19143;59.322;14.502;2023-02-15T00:51:04;24.43;;;8.93;;
32790;SDS011;19143;59.322;14.502;2023-02-15T00:53:31;21.50;;;8.87;;
32790;SDS011;19143;59.322;14.502;2023-02-15T00:55:59;26.83;;;9.43;;
32790;SDS011;19143;59.322;14.502;2023-02-15T00:58:26;23.87;;;9.20;;
32790;SDS011;19143;59.322;14.502;2023-02-15T01:00:53;22.20;;;8.93;;
32790;SDS011;19143;59.322;14.502;2023-02-15T01:03:19;26.83;;;10.13;;
32790;SDS011;19143;59.322;14.502;2023-02-15T01:05:47;18.87;;;8.37;;
32790;SDS011;19143;59.322;14.502;2023-02-15T01:08:14;25.43;;;9.50;;
32790;SDS011;19143;59.322;14.502;2023-02-15T01:10:41;18.70;;;8.93;;
32790;SDS011;19143;59.322;14.502;2023-02-15T01:13:10;20.90;;;9.27;;
32790;SDS011;19143;59.322;14.502;2023-02-15T01:15:38;19.80;;;8.97;;
32790;SDS011;19143;59.322;14.502;2023-02-15T01:18:04;23.10;;;9.47;;
32790;SDS011;19143;59.322;14.502;2023-02-15T01:20:33;20.47;;;9.70;;
32790;SDS011;19143;59.322;14.502;2023-02-15T01:23:00;26.00;;;9.93;;
32790;SDS011;19143;59.322;14.502;2023-02-15T01:25:27;26.43;;;9.60;;
32790;SDS011;19143;59.322;14.502;2023-02-15T01:27:53;22.53;;;9.40;;
32790;SDS011;19143;59.322;14.502;2023-02-15T01:30:21;23.03;;;9.53;;
32790;SDS011;19143;59.322;14.502;2023-02-15T01:32:48;21.83;;;9.77;;
32790;SDS011;19143;59.322;14.502;2023-02-15T01:35:15;25.10;;;9.33;;
32790;SDS011;19143;59.322;14.502;2023-02-15T01:37:42;20.47;;;9.33;;
32790;SDS011;19143;59.322;14.502;2023-02-15T01:40:12;20.23;;;8.47;;
32790;SDS011;19143;59.322;14.502;2023-02-15T01:42:39;20.50;;;8.57;;
32790;SDS011;19143;59.322;14.502;2023-02-15T01:45:11;21.70;;;8.83;;
32790;SDS011;19143;59.322;14.502;2023-02-15T01:47:42;21.63;;;8.80;;
32790;SDS011;19143;59.322;14.502;2023-02-15T01:50:10;22.97;;;8.80;;
32790;SDS011;19143;59.322;14.502;2023-02-15T01:52:39;25.33;;;9.80;;
32790;SDS011;19143;59.322;14.502;2023-02-15T01:55:07;28.03;;;10.20;;
32790;SDS011;19143;59.322;14.502;2023-02-15T01:57:34;22.37;;;8.77;;
32790;SDS011;19143;59.322;14.502;2023-02-15T02:00:02;23.80;;;9.13;;
32790;SDS011;19143;59.322;14.502;2023-02-15T02:02:29;18.17;;;8.23;;
32790;SDS011;19143;59.322;14.502;2023-02-15T02:04:58;23.57;;;9.20;;
32790;SDS011;19143;59.322;14.502;2023-02-15T02:07:28;22.67;;;9.43;;
32790;SDS011;19143;59.322;14.502;2023-02-15T02:09:55;21.73;;;8.97;;
32790;SDS011;19143;59.322;14.502;2023-02-15T02:12:22;23.57;;;9.57;;
32790;SDS011;19143;59.322;14.502;2023-02-15T02:14:50;25.47;;;9.80;;
32790;SDS011;19143;59.322;14.502;2023-02-15T02:17:17;25.20;;;10.60;;
32790;SDS011;19143;59.322;14.502;2023-02-15T02:19:55;25.97;;;10.23;;
32790;SDS011;19143;59.322;14.502;2023-02-15T02:22:39;26.03;;;10.47;;
32790;SDS011;19143;59.322;14.502;2023-02-15T02:27:56;25.77;;;9.77;;
32790;SDS011;19143;59.322;14.502;2023-02-15T02:30:37;29.70;;;10.43;;
32790;SDS011;19143;59.322;14.502;2023-02-15T02:33:19;24.60;;;9.73;;
32790;SDS011;19143;59.322;14.502;2023-02-15T02:35:49;28.70;;;10.30;;
32790;SDS011;19143;59.322;14.502;2023-02-15T02:38:20;30.70;;;11.90;;
32790;SDS011;19143;59.322;14.502;2023-02-15T02:40:51;23.33;;;10.60;;
32790;SDS011;19143;59.322;14.502;2023-02-15T02:43:20;29.37;;;10.77;;
32790;SDS011;19143;59.322;14.502;2023-02-15T02:45:50;25.37;;;10.77;;
32790;SDS011;19143;59.322;14.502;2023-02-15T02:48:18;26.37;;;10.40;;
32790;SDS011;19143;59.322;14.502;2023-02-15T02:50:48;29.47;;;10.60;;
32790;SDS011;19143;59.322;14.502;2023-02-15T02:53:15;27.77;;;10.47;;
32790;SDS011;19143;59.322;14.502;2023-02-15T02:55:42;24.30;;;10.83;;
32790;SDS011;19143;59.322;14.502;2023-02-15T02:58:14;29.17;;;11.00;;
32790;SDS011;19143;59.322;14.502;2023-02-15T03:00:44;25.63;;;10.33;;
32790;SDS011;19143;59.322;14.502;2023-02-15T03:03:12;29.70;;;11.10;;
32790;SDS011;19143;59.322;14.502;2023-02-15T03:05:41;29.00;;;11.20;;
32790;SDS011;19143;59.322;14.502;2023-02-15T03:08:12;29.73;;;11.63;;
32790;SDS011;19143;59.322;14.502;2023-02-15T03:10:46;30.57;;;11.67;;
32790;SDS011;19143;59.322;14.502;2023-02-15T03:13:14;36.53;;;11.33;;
32790;SDS011;19143;59.322;14.502;2023-02-15T03:15:41;26.73;;;10.63;;
32790;SDS011;19143;59.322;14.502;2023-02-15T03:18:28;30.00;;;10.47;;
32790;SDS011;19143;59.322;14.502;2023-02-15T03:20:56;22.17;;;10.90;;
32790;SDS011;19143;59.322;14.502;2023-02-15T03:23:26;28.37;;;11.77;;
32790;SDS011;19143;59.322;14.502;2023-02-15T03:25:55;29.63;;;11.80;;
32790;SDS011;19143;59.322;14.502;2023-02-15T03:28:23;27.97;;;11.10;;
32790;SDS011;19143;59.322;14.502;2023-02-15T03:30:53;29.73;;;11.40;;
32790;SDS011;19143;59.322;14.502;2023-02-15T03:33:21;32.10;;;11.73;;
32790;SDS011;19143;59.322;14.502;2023-02-15T03:35:52;34.03;;;12.13;;
32790;SDS011;19143;59.322;14.502;2023-02-15T03:38:23;35.50;;;12.27;;
32790;SDS011;19143;59.322;14.502;2023-02-15T03:40:53;31.40;;;11.53;;
32790;SDS011;19143;59.322;14.502;2023-02-15T03:43:37;36.30;;;11.97;;
32790;SDS011;19143;59.322;14.502;2023-02-15T03:46:06;28.47;;;11.90;;
32790;SDS011;19143;59.322;14.502;2023-02-15T03:48:35;34.20;;;11.63;;
32790;SDS011;19143;59.322;14.502;2023-02-15T03:51:04;30.93;;;11.10;;
32790;SDS011;19143;59.322;14.502;2023-02-15T03:53:49;30.00;;;12.00;;
32790;SDS011;19143;59.322;14.502;2023-02-15T03:56:18;25.53;;;11.43;;
32790;SDS011;19143;59.322;14.502;2023-02-15T03:58:44;29.07;;;11.63;;
32790;SDS011;19143;59.322;14.502;2023-02-15T04:01:31;26.17;;;11.57;;
32790;SDS011;19143;59.322;14.502;2023-02-15T04:04:23;34.07;;;12.70;;
32790;SDS011;19143;59.322;14.502;2023-02-15T04:06:50;27.80;;;11.00;;
32790;SDS011;19143;59.322;14.502;2023-02-15T04:09:17;27.37;;;11.07;;
32790;SDS011;19143;59.322;14.502;2023-02-15T04:12:02;31.27;;;11.67;;
32790;SDS011;19143;59.322;14.502;2023-02-15T04:14:29;32.50;;;11.40;;
32790;SDS011;19143;59.322;14.502;2023-02-15T04:17:13;29.83;;;11.23;;
32790;SDS011;19143;59.322;14.502;2023-02-15T04:19:40;35.07;;;12.50;;
32790;SDS011;19143;59.322;14.502;2023-02-15T04:22:24;29.93;;;11.97;;
32790;SDS011;19143;59.322;14.502;2023-02-15T04:25:07;29.10;;;11.10;;
32790;SDS011;19143;59.322;14.502;2023-02-15T04:27:40;29.23;;;11.17;;
32790;SDS011;19143;59.322;14.502;2023-02-15T04:30:08;28.87;;;11.07;;
32790;SDS011;19143;59.322;14.502;2023-02-15T04:32:35;35.00;;;12.60;;
32790;SDS011;19143;59.322;14.502;2023-02-15T04:35:02;30.07;;;11.07;;
32790;SDS011;19143;59.322;14.502;2023-02-15T04:37:29;29.47;;;11.53;;
32790;SDS011;19143;59.322;14.502;2023-02-15T04:39:55;28.30;;;11.27;;
32790;SDS011;19143;59.322;14.502;2023-02-15T04:42:23;28.10;;;10.57;;
32790;SDS011;19143;59.322;14.502;2023-02-15T04:44:51;29.67;;;11.10;;
32790;SDS011;19143;59.322;14.502;2023-02-15T04:47:19;29.17;;;11.10;;
32790;SDS011;19143;59.322;14.502;2023-02-15T04:49:45;30.53;;;10.93;;
32790;SDS011;19143;59.322;14.502;2023-02-15T04:52:12;28.37;;;11.63;;
32790;SDS011;19143;59.322;14.502;2023-02-15T04:54:39;31.57;;;11.50;;
32790;SDS011;19143;59.322;14.502;2023-02-15T04:57:06;31.93;;;12.37;;
32790;SDS011;19143;59.322;14.502;2023-02-15T04:59:32;31.73;;;12.87;;
32790;SDS011;19143;59.322;14.502;2023-02-15T05:02:01;29.17;;;11.03;;
32790;SDS011;19143;59.322;14.502;2023-02-15T05:04:27;29.97;;;11.90;;
32790;SDS011;19143;59.322;14.502;2023-02-15T05:06:54;32.63;;;12.67;;
32790;SDS011;19143;59.322;14.502;2023-02-15T05:09:21;31.47;;;11.77;;
32790;SDS011;19143;59.322;14.502;2023-02-15T05:11:47;30.03;;;11.43;;
32790;SDS011;19143;59.322;14.502;2023-02-15T05:14:14;32.63;;;11.93;;
32790;SDS011;19143;59.322;14.502;2023-02-15T05:16:41;34.17;;;11.67;;
32790;SDS011;19143;59.322;14.502;2023-02-15T05:19:09;33.73;;;11.80;;
32790;SDS011;19143;59.322;14.502;2023-02-15T05:21:35;32.80;;;11.60;;
32790;SDS011;19143;59.322;14.502;2023-02-15T05:24:02;36.47;;;11.87;;
32790;SDS011;19143;59.322;14.502;2023-02-15T05:26:49;30.10;;;11.23;;
32790;SDS011;19143;59.322;14.502;2023-02-15T05:29:33;31.53;;;11.87;;
32790;SDS011;19143;59.322;14.502;2023-02-15T05:32:00;34.20;;;11.93;;
32790;SDS011;19143;59.322;14.502;2023-02-15T05:34:30;30.63;;;12.53;;
32790;SDS011;19143;59.322;14.502;2023-02-15T05:36:57;32.07;;;12.03;;
32790;SDS011;19143;59.322;14.502;2023-02-15T05:39:24;32.50;;;12.10;;
32790;SDS011;19143;59.322;14.502;2023-02-15T05:41:50;32.47;;;12.13;;
32790;SDS011;19143;59.322;14.502;2023-02-15T05:44:17;37.67;;;14.03;;
32790;SDS011;19143;59.322;14.502;2023-02-15T05:46:44;30.27;;;13.07;;
32790;SDS011;19143;59.322;14.502;2023-02-15T05:49:10;31.93;;;13.17;;
32790;SDS011;19143;59.322;14.502;2023-02-15T05:51:38;28.87;;;11.37;;
32790;SDS011;19143;59.322;14.502;2023-02-15T05:54:05;34.67;;;12.13;;
32790;SDS011;19143;59.322;14.502;2023-02-15T05:56:32;31.73;;;12.23;;
32790;SDS011;19143;59.322;14.502;2023-02-15T05:58:58;30.53;;;12.07;;
32790;SDS011;19143;59.322;14.502;2023-02-15T06:01:25;28.50;;;11.63;;
32790;SDS011;19143;59.322;14.502;2023-02-15T06:03:52;30.87;;;12.60;;
32790;SDS011;19143;59.322;14.502;2023-02-15T06:06:19;28.97;;;11.43;;
32790;SDS011;19143;59.322;14.502;2023-02-15T06:08:47;31.30;;;12.07;;
32790;SDS011;19143;59.322;14.502;2023-02-15T06:11:14;36.03;;;13.00;;
32790;SDS011;19143;59.322;14.502;2023-02-15T06:13:41;36.07;;;13.03;;
32790;SDS011;19143;59.322;14.502;2023-02-15T06:16:07;35.43;;;12.13;;
32790;SDS011;19143;59.322;14.502;2023-02-15T06:18:34;31.97;;;12.50;;
32790;SDS011;19143;59.322;14.502;2023-02-15T06:21:01;34.60;;;12.60;;
32790;SDS011;19143;59.322;14.502;2023-02-15T06:23:28;30.60;;;11.90;;
32790;SDS011;19143;59.322;14.502;2023-02-15T06:25:56;34.73;;;12.43;;
32790;SDS011;19143;59.322;14.502;2023-02-15T06:28:23;32.43;;;12.80;;
32790;SDS011;19143;59.322;14.502;2023-02-15T06:30:51;34.93;;;13.40;;
32790;SDS011;19143;59.322;14.502;2023-02-15T06:33:17;34.47;;;12.10;;
32790;SDS011;19143;59.322;14.502;2023-02-15T06:35:44;38.13;;;13.00;;
32790;SDS011;19143;59.322;14.502;2023-02-15T06:38:11;37.27;;;12.67;;
32790;SDS011;19143;59.322;14.502;2023-02-15T06:40:38;36.90;;;12.37;;
32790;SDS011;19143;59.322;14.502;2023-02-15T06:43:06;37.63;;;13.07;;
32790;SDS011;19143;59.322;14.502;2023-02-15T06:45:33;40.47;;;12.40;;
32790;SDS011;19143;59.322;14.502;2023-02-15T06:47:59;45.57;;;13.93;;
32790;SDS011;19143;59.322;14.502;2023-02-15T06:50:26;41.77;;;13.73;;
32790;SDS011;19143;59.322;14.502;2023-02-15T06:52:55;37.67;;;13.17;;
32790;SDS011;19143;59.322;14.502;2023-02-15T06:55:22;39.37;;;13.80;;
32790;SDS011;19143;59.322;14.502;2023-02-15T06:57:50;34.10;;;12.83;;
32790;SDS011;19143;59.322;14.502;2023-02-15T07:00:18;35.37;;;12.30;;
32790;SDS011;19143;59.322;14.502;2023-02-15T07:02:49;35.63;;;13.20;;
32790;SDS011;19143;59.322;14.502;2023-02-15T07:05:20;34.30;;;13.03;;
32790;SDS011;19143;59.322;14.502;2023-02-15T07:07:46;35.77;;;12.53;;
32790;SDS011;19143;59.322;14.502;2023-02-15T07:10:13;41.90;;;13.03;;
32790;SDS011;19143;59.322;14.502;2023-02-15T07:12:40;34.97;;;12.13;;
32790;SDS011;19143;59.322;14.502;2023-02-15T07:15:09;39.40;;;13.83;;
32790;SDS011;19143;59.322;14.502;2023-02-15T07:17:40;37.77;;;12.97;;
32790;SDS011;19143;59.322;14.502;2023-02-15T07:20:13;42.33;;;13.30;;
32790;SDS011;19143;59.322;14.502;2023-02-15T07:22:40;41.17;;;13.50;;
32790;SDS011;19143;59.322;14.502;2023-02-15T07:25:08;35.63;;;12.47;;
32790;SDS011;19143;59.322;14.502;2023-02-15T07:27:35;41.13;;;12.80;;
32790;SDS011;19143;59.322;14.502;2023-02-15T07:30:16;35.47;;;12.73;;
32790;SDS011;19143;59.322;14.502;2023-02-15T07:32:44;42.00;;;13.57;;
32790;SDS011;19143;59.322;14.502;2023-02-15T07:35:28;42.03;;;13.50;;
32790;SDS011;19143;59.322;14.502;2023-02-15T07:37:55;37.13;;;12.60;;
32790;SDS011;19143;59.322;14.502;2023-02-15T07:40:22;60.43;;;17.67;;
32790;SDS011;19143;59.322;14.502;2023-02-15T07:42:49;55.60;;;19.70;;
32790;SDS011;19143;59.322;14.502;2023-02-15T07:45:16;40.87;;;13.60;;
32790;SDS011;19143;59.322;14.502;2023-02-15T07:47:44;35.30;;;12.40;;
32790;SDS011;19143;59.322;14.502;2023-02-15T07:50:11;39.77;;;12.77;;
32790;SDS011;19143;59.322;14.502;2023-02-15T07:52:38;39.57;;;12.20;;
32790;SDS011;19143;59.322;14.502;2023-02-15T07:55:05;36.87;;;12.37;;
32790;SDS011;19143;59.322;14.502;2023-02-15T07:57:31;39.50;;;13.53;;
32790;SDS011;19143;59.322;14.502;2023-02-15T07:59:58;41.03;;;12.37;;
32790;SDS011;19143;59.322;14.502;2023-02-15T08:02:24;36.47;;;12.67;;
32790;SDS011;19143;59.322;14.502;2023-02-15T08:04:53;34.40;;;12.60;;
32790;SDS011;19143;59.322;14.502;2023-02-15T08:07:19;38.00;;;12.87;;
32790;SDS011;19143;59.322;14.502;2023-02-15T08:09:46;44.10;;;13.97;;
32790;SDS011;19143;59.322;14.502;2023-02-15T08:12:13;35.33;;;12.87;;
32790;SDS011;19143;59.322;14.502;2023-02-15T08:14:40;37.90;;;14.20;;
32790;SDS011;19143;59.322;14.502;2023-02-15T08:17:07;36.17;;;13.83;;
32790;SDS011;19143;59.322;14.502;2023-02-15T08:19:34;40.73;;;12.67;;
32790;SDS011;19143;59.322;14.502;2023-02-15T08:22:03;37.23;;;13.87;;
32790;SDS011;19143;59.322;14.502;2023-02-15T08:24:31;39.10;;;13.37;;
32790;SDS011;19143;59.322;14.502;2023-02-15T08:26:58;37.87;;;13.07;;
32790;SDS011;19143;59.322;14.502;2023-02-15T08:29:28;37.27;;;12.07;;
32790;SDS011;19143;59.322;14.502;2023-02-15T08:31:55;39.20;;;12.27;;
32790;SDS011;19143;59.322;14.502;2023-02-15T08:34:23;44.60;;;13.63;;
32790;SDS011;19143;59.322;14.502;2023-02-15T08:36:50;38.77;;;11.87;;
32790;SDS011;19143;59.322;14.502;2023-02-15T08:39:18;39.37;;;12.73;;
32790;SDS011;19143;59.322;14.502;2023-02-15T08:41:45;38.50;;;12.13;;
32790;SDS011;19143;59.322;14.502;2023-02-15T08:44:19;40.33;;;12.63;;
32790;SDS011;19143;59.322;14.502;2023-02-15T08:46:47;41.03;;;12.27;;
32790;SDS011;19143;59.322;14.502;2023-02-15T08:49:15;36.53;;;12.73;;
32790;SDS011;19143;59.322;14.502;2023-02-15T08:51:42;37.30;;;13.20;;
32790;SDS011;19143;59.322;14.502;2023-02-15T08:54:09;37.03;;;13.13;;
32790;SDS011;19143;59.322;14.502;2023-02-15T08:56:38;31.13;;;11.47;;
32790;SDS011;19143;59.322;14.502;2023-02-15T08:59:05;36.00;;;12.20;;
32790;SDS011;19143;59.322;14.502;2023-02-15T09:01:33;38.40;;;12.90;;
32790;SDS011;19143;59.322;14.502;2023-02-15T09:04:01;36.37;;;11.60;;
32790;SDS011;19143;59.322;14.502;2023-02-15T09:06:28;37.93;;;12.20;;
32790;SDS011;19143;59.322;14.502;2023-02-15T09:08:54;39.77;;;13.03;;
32790;SDS011;19143;59.322;14.502;2023-02-15T09:11:22;31.87;;;11.73;;
32790;SDS011;19143;59.322;14.502;2023-02-15T09:13:51;38.70;;;12.17;;
32790;SDS011;19143;59.322;14.502;2023-02-15T09:16:18;35.70;;;13.63;;
32790;SDS011;19143;59.322;14.502;2023-02-15T09:18:45;34.57;;;11.80;;
32790;SDS011;19143;59.322;14.502;2023-02-15T09:21:13;36.70;;;11.90;;
32790;SDS011;19143;59.322;14.502;2023-02-15T09:23:40;38.47;;;12.90;;
32790;SDS011;19143;59.322;14.502;2023-02-15T09:26:07;40.20;;;12.73;;
32790;SDS011;19143;59.322;14.502;2023-02-15T09:28:34;37.13;;;12.60;;
32790;SDS011;19143;59.322;14.502;2023-02-15T09:31:06;41.50;;;12.07;;
32790;SDS011;19143;59.322;14.502;2023-02-15T09:33:33;43.43;;;14.23;;
32790;SDS011;19143;59.322;14.502;2023-02-15T09:36:00;42.30;;;11.97;;
32790;SDS011;19143;59.322;14.502;2023-02-15T09:38:26;38.37;;;12.23;;
32790;SDS011;19143;59.322;14.502;2023-02-15T09:40:55;35.23;;;12.03;;
32790;SDS011;19143;59.322;14.502;2023-02-15T09:43:27;38.57;;;11.97;;
32790;SDS011;19143;59.322;14.502;2023-02-15T09:46:02;34.50;;;12.37;;
32790;SDS011;19143;59.322;14.502;2023-02-15T09:48:50;37.77;;;12.27;;
32790;SDS011;19143;59.322;14.502;2023-02-15T09:54:16;35.50;;;11.23;;
32790;SDS011;19143;59.322;14.502;2023-02-15T09:56:48;32.67;;;11.87;;
32790;SDS011;19143;59.322;14.502;2023-02-15T09:59:19;31.90;;;11.33;;
32790;SDS011;19143;59.322;14.502;2023-02-15T10:01:49;30.80;;;12.47;;
32790;SDS011;19143;59.322;14.502;2023-02-15T10:07:06;33.23;;;11.70;;
32790;SDS011;19143;59.322;14.502;2023-02-15T10:09:52;31.90;;;11.00;;
32790;SDS011;19143;59.322;14.502;2023-02-15T10:12:25;27.27;;;10.27;;
32790;SDS011;19143;59.322;14.502;2023-02-15T10:15:04;39.67;;;11.90;;
32790;SDS011;19143;59.322;14.502;2023-02-15T10:17:41;29.17;;;11.60;;
32790;SDS011;19143;59.322;14.502;2023-02-15T10:20:14;38.20;;;12.17;;
32790;SDS011;19143;59.322;14.502;2023-02-15T10:22:47;33.77;;;10.70;;
32790;SDS011;19143;59.322;14.502;2023-02-15T10:25:20;31.70;;;11.43;;
32790;SDS011;19143;59.322;14.502;2023-02-15T10:27:49;34.30;;;11.53;;
32790;SDS011;19143;59.322;14.502;2023-02-15T10:30:16;32.73;;;11.20;;
32790;SDS011;19143;59.322;14.502;2023-02-15T10:32:50;36.77;;;11.00;;
32790;SDS011;19143;59.322;14.502;2023-02-15T10:35:20;32.33;;;11.87;;
32790;SDS011;19143;59.322;14.502;2023-02-15T10:40:37;36.70;;;11.60;;
32790;SDS011;19143;59.322;14.502;2023-02-15T10:46:05;33.07;;;11.67;;
32790;SDS011;19143;59.322;14.502;2023-02-15T10:48:40;30.90;;;11.20;;
32790;SDS011;19143;59.322;14.502;2023-02-15T10:51:11;30.40;;;10.87;;
32790;SDS011;19143;59.322;14.502;2023-02-15T10:53:45;30.93;;;11.40;;
32790;SDS011;19143;59.322;14.502;2023-02-15T10:56:19;30.63;;;11.83;;
32790;SDS011;19143;59.322;14.502;2023-02-15T10:58:50;32.83;;;10.70;;
32790;SDS011;19143;59.322;14.502;2023-02-15T11:01:20;34.23;;;11.90;;
32790;SDS011;19143;59.322;14.502;2023-02-15T11:03:57;28.87;;;10.17;;
32790;SDS011;19143;59.322;14.502;2023-02-15T11:06:28;36.47;;;11.53;;
32790;SDS011;19143;59.322;14.502;2023-02-15T11:08:56;38.93;;;11.83;;
32790;SDS011;19143;59.322;14.502;2023-02-15T11:11:27;34.17;;;11.07;;
32790;SDS011;19143;59.322;14.502;2023-02-15T11:13:56;29.47;;;11.33;;
32790;SDS011;19143;59.322;14.502;2023-02-15T11:16:25;29.40;;;11.10;;
32790;SDS011;19143;59.322;14.502;2023-02-15T11:18:55;30.27;;;11.03;;
32790;SDS011;19143;59.322;14.502;2023-02-15T11:21:24;28.90;;;10.27;;
32790;SDS011;19143;59.322;14.502;2023-02-15T11:23:52;32.60;;;10.97;;
32790;SDS011;19143;59.322;14.502;2023-02-15T11:26:21;38.53;;;11.37;;
32790;SDS011;19143;59.322;14.502;2023-02-15T11:28:52;30.77;;;9.83;;
32790;SDS011;19143;59.322;14.502;2023-02-15T11:31:21;29.97;;;9.93;;
32790;SDS011;19143;59.322;14.502;2023-02-15T11:33:49;28.77;;;10.37;;
32790;SDS011;19143;59.322;14.502;2023-02-15T11:36:19;31.43;;;11.87;;
32790;SDS011;19143;59.322;14.502;2023-02-15T11:38:46;32.07;;;10.47;;
32790;SDS011;19143;59.322;14.502;2023-02-15T11:41:16;31.30;;;11.13;;
32790;SDS011;19143;59.322;14.502;2023-02-15T11:43:46;31.77;;;9.97;;
32790;SDS011;19143;59.322;14.502;2023-02-15T11:46:16;34.77;;;11.13;;
32790;SDS011;19143;59.322;14.502;2023-02-15T11:48:44;28.80;;;10.67;;
32790;SDS011;19143;59.322;14.502;2023-02-15T11:51:12;30.80;;;10.87;;
32790;SDS011;19143;59.322;14.502;2023-02-15T11:53:41;35.93;;;11.83;;
32790;SDS011;19143;59.322;14.502;2023-02-15T11:56:12;33.87;;;10.97;;
32790;SDS011;19143;59.322;14.502;2023-02-15T11:58:40;28.13;;;10.63;;
32790;SDS011;19143;59.322;14.502;2023-02-15T12:01:09;32.57;;;11.13;;
32790;SDS011;19143;59.322;14.502;2023-02-15T12:03:43;34.13;;;11.30;;
32790;SDS011;19143;59.322;14.502;2023-02-15T12:06:14;33.17;;;11.30;;
32790;SDS011;19143;59.322;14.502;2023-02-15T12:09:05;35.03;;;12.07;;
32790;SDS011;19143;59.322;14.502;2023-02-15T12:11:35;38.33;;;12.30;;
32790;SDS011;19143;59.322;14.502;2023-02-15T12:14:11;32.07;;;11.30;;
32790;SDS011;19143;59.322;14.502;2023-02-15T12:16:41;37.50;;;11.33;;
32790;SDS011;19143;59.322;14.502;2023-02-15T12:19:17;29.83;;;11.10;;
32790;SDS011;19143;59.322;14.502;2023-02-15T12:21:49;34.70;;;11.90;;
32790;SDS011;19143;59.322;14.502;2023-02-15T12:24:17;38.00;;;12.10;;
32790;SDS011;19143;59.322;14.502;2023-02-15T12:26:45;37.90;;;11.90;;
32790;SDS011;19143;59.322;14.502;2023-02-15T12:29:22;45.03;;;12.93;;
32790;SDS011;19143;59.322;14.502;2023-02-15T12:32:05;36.57;;;11.87;;
32790;SDS011;19143;59.322;14.502;2023-02-15T12:34:36;38.40;;;12.53;;
32790;SDS011;19143;59.322;14.502;2023-02-15T12:37:09;36.17;;;12.43;;
32790;SDS011;19143;59.322;14.502;2023-02-15T12:39:39;39.47;;;12.30;;
32790;SDS011;19143;59.322;14.502;2023-02-15T12:42:16;35.33;;;12.30;;
32790;SDS011;19143;59.322;14.502;2023-02-15T12:44:57;38.10;;;12.00;;
32790;SDS011;19143;59.322;14.502;2023-02-15T12:47:24;44.23;;;13.10;;
32790;SDS011;19143;59.322;14.502;2023-02-15T12:50:08;35.07;;;11.33;;
32790;SDS011;19143;59.322;14.502;2023-02-15T12:52:41;39.50;;;12.23;;
32790;SDS011;19143;59.322;14.502;2023-02-15T12:55:18;34.40;;;11.83;;
32790;SDS011;19143;59.322;14.502;2023-02-15T12:57:45;35.53;;;11.73;;
32790;SDS011;19143;59.322;14.502;2023-02-15T13:00:26;39.13;;;11.90;;
32790;SDS011;19143;59.322;14.502;2023-02-15T13:02:57;34.90;;;12.13;;
32790;SDS011;19143;59.322;14.502;2023-02-15T13:05:28;35.93;;;12.47;;
32790;SDS011;19143;59.322;14.502;2023-02-15T13:07:57;32.97;;;11.33;;
32790;SDS011;19143;59.322;14.502;2023-02-15T13:10:25;35.77;;;11.70;;
32790;SDS011;19143;59.322;14.502;2023-02-15T13:12:53;33.93;;;11.90;;
32790;SDS011;19143;59.322;14.502;2023-02-15T13:15:26;33.83;;;12.27;;
32790;SDS011;19143;59.322;14.502;2023-02-15T13:17:56;30.60;;;11.30;;
32790;SDS011;19143;59.322;14.502;2023-02-15T13:20:24;34.97;;;12.33;;
32790;SDS011;19143;59.322;14.502;2023-02-15T13:22:54;34.10;;;11.17;;
32790;SDS011;19143;59.322;14.502;2023-02-15T13:25:22;33.30;;;12.47;;
32790;SDS011;19143;59.322;14.502;2023-02-15T13:27:51;33.23;;;12.10;;
32790;SDS011;19143;59.322;14.502;2023-02-15T13:30:23;34.90;;;12.83;;
32790;SDS011;19143;59.322;14.502;2023-02-15T13:32:51;37.40;;;13.03;;
32790;SDS011;19143;59.322;14.502;2023-02-15T13:35:19;36.53;;;12.80;;
32790;SDS011;19143;59.322;14.502;2023-02-15T13:37:57;38.27;;;12.17;;
32790;SDS011;19143;59.322;14.502;2023-02-15T13:40:27;33.33;;;11.70;;
32790;SDS011;19143;59.322;14.502;2023-02-15T13:42:59;36.23;;;12.27;;
32790;SDS011;19143;59.322;14.502;2023-02-15T13:45:31;36.13;;;11.77;;
32790;SDS011;19143;59.322;14.502;2023-02-15T13:48:00;37.30;;;12.50;;
32790;SDS011;19143;59.322;14.502;2023-02-15T13:50:37;35.60;;;11.87;;
32790;SDS011;19143;59.322;14.502;2023-02-15T13:55:50;37.03;;;12.03;;
32790;SDS011;19143;59.322;14.502;2023-02-15T13:58:22;38.87;;;13.10;;
32790;SDS011;19143;59.322;14.502;2023-02-15T14:00:55;35.87;;;11.53;;
32790;SDS011;19143;59.322;14.502;2023-02-15T14:03:28;35.57;;;11.23;;
32790;SDS011;19143;59.322;14.502;2023-02-15T14:06:20;34.13;;;12.03;;
32790;SDS011;19143;59.322;14.502;2023-02-15T14:08:55;37.63;;;12.30;;
32790;SDS011;19143;59.322;14.502;2023-02-15T14:11:29;33.83;;;12.20;;
32790;SDS011;19143;59.322;14.502;2023-02-15T14:14:08;35.70;;;12.20;;
32790;SDS011;19143;59.322;14.502;2023-02-15T14:16:40;37.60;;;13.20;;
32790;SDS011;19143;59.322;14.502;2023-02-15T14:19:14;37.50;;;11.73;;
32790;SDS011;19143;59.322;14.502;2023-02-15T14:21:47;40.57;;;12.27;;
32790;SDS011;19143;59.322;14.502;2023-02-15T14:24:37;36.87;;;12.20;;
32790;SDS011;19143;59.322;14.502;2023-02-15T14:27:19;37.30;;;12.17;;
32790;SDS011;19143;59.322;14.502;2023-02-15T14:29:51;34.83;;;11.37;;
32790;SDS011;19143;59.322;14.502;2023-02-15T14:32:20;31.03;;;11.57;;
32790;SDS011;19143;59.322;14.502;2023-02-15T14:34:51;32.17;;;10.50;;
32790;SDS011;19143;59.322;14.502;2023-02-15T14:37:20;34.33;;;11.53;;
32790;SDS011;19143;59.322;14.502;2023-02-15T14:39:52;34.77;;;11.30;;
32790;SDS011;19143;59.322;14.502;2023-02-15T14:42:42;34.80;;;10.80;;
32790;SDS011;19143;59.322;14.502;2023-02-15T14:45:15;30.97;;;10.77;;